YOAD weather

Old Andado Airport
Northern Territory, Australia

Public forecast

Using degrees Celsius for public forecast. Weather courtesy of forecast.io.

Closest aviation weather report (METAR) to Old Andado Airport

Closest report is Alice Springs Airport, 125.7 nm (232.8 km) NW. Retrieved 2019/10/20 07:30 UTC (9 minutes ago):

YBAS 200730Z AUTO 12011KT 9999 // NCD 31/M03 Q1019 RF000/0000

Closest aviation forecast (TAF) to Old Andado Airport

Closest forecast is Alice Springs Airport, 125.7 nm (232.8 km) NW. Retrieved 2019/10/20 06:00 UTC (2 hours ago):

TAF YBAS 200503Z 2006/2106 10014KT CAVOK FM201200 13006KT CAVOK FM202200 09014KT CAVOK